Time;durP1;ratioP1;P1;durP2;ratioP2;P2;SDS_P1;SDS_P2;PMS_P1;PMS_P2;Temp;Humidity;BMP_temperature;BMP_pressure;BME280_temperature;BME280_humidity;BME280_pressure;Samples;Min_cycle;Max_cycle;Signal;HPM_P1;HPM_P2
2023/03/17 00:00:45;;;;;;;0.10;0.10;;;;;;;1.63;78.40;99937.75;4970229;28;20111;-70
2023/03/17 00:03:17;;;;;;;0.10;0.10;;;;;;;1.56;78.54;99927.00;5003917;28;20050;-70
2023/03/17 00:05:44;;;;;;;0.10;0.10;;;;;;;1.61;78.63;99939.84;5021827;28;20041;-70
2023/03/17 00:08:18;;;;;;;0.10;0.10;;;;;;;1.62;78.66;99942.31;5020752;28;20049;-70
2023/03/17 00:10:44;;;;;;;0.10;0.10;;;;;;;1.56;78.97;99932.38;5005877;28;20053;-71
2023/03/17 00:13:11;;;;;;;0.10;0.10;;;;;;;1.62;78.63;99942.31;4989268;28;20052;-70
2023/03/17 00:15:38;;;;;;;0.17;0.17;;;;;;;1.65;78.36;99949.16;5005432;28;20413;-70
2023/03/17 00:18:11;;;;;;;0.10;0.10;;;;;;;1.62;78.61;99938.81;5006883;28;20096;-70
2023/03/17 00:20:37;;;;;;;0.10;0.10;;;;;;;1.61;78.75;99942.53;5007755;28;20058;-71
2023/03/17 00:23:04;;;;;;;0.10;0.10;;;;;;;1.56;78.67;99953.94;5008504;28;20099;-70
2023/03/17 00:25:33;;;;;;;0.10;0.10;;;;;;;1.54;79.05;99951.47;5008454;28;20054;-71
2023/03/17 00:28:03;;;;;;;0.10;0.10;;;;;;;1.54;78.97;99951.47;5005563;28;20131;-71
2023/03/17 00:30:29;;;;;;;0.10;0.10;;;;;;;1.53;78.82;99943.59;5006681;28;20531;-70
2023/03/17 00:32:57;;;;;;;0.10;0.10;;;;;;;1.52;79.04;99939.25;5003782;28;20057;-71
2023/03/17 00:35:25;;;;;;;;;;;;;;;1.53;78.88;99947.09;5009652;28;20456;-70
2023/03/17 00:37:54;;;;;;;0.10;0.10;;;;;;;1.53;78.77;99949.81;5005655;28;19933;-70
2023/03/17 00:40:22;;;;;;;0.10;0.10;;;;;;;1.48;78.86;99943.38;5004497;28;20046;-70
2023/03/17 00:42:48;;;;;;;;;;;;;;;1.50;78.97;99947.53;5003188;28;20057;-70
2023/03/17 00:45:15;;;;;;;0.10;0.10;;;;;;;1.44;78.93;99951.09;4988173;28;19926;-70
2023/03/17 00:47:41;;;;;;;0.10;0.10;;;;;;;1.38;78.95;99938.44;4999466;28;20049;-70
2023/03/17 00:50:15;;;;;;;0.20;0.20;;;;;;;1.43;78.97;99952.13;5007032;28;20053;-70
2023/03/17 00:52:44;;;;;;;0.10;0.10;;;;;;;1.43;78.89;99949.44;5006397;28;20045;-70
2023/03/17 00:55:11;;;;;;;0.10;0.10;;;;;;;1.41;79.15;99951.50;4972061;28;20579;-70
2023/03/17 00:57:39;;;;;;;0.10;0.10;;;;;;;1.41;79.29;99962.28;5005254;28;20948;-70
2023/03/17 01:00:16;;;;;;;0.00;0.00;;;;;;;1.42;78.98;99958.56;5006142;28;20069;-69
2023/03/17 01:02:43;;;;;;;0.10;0.10;;;;;;;1.45;79.11;99962.69;5005779;28;20585;-70
2023/03/17 01:05:10;;;;;;;0.10;0.10;;;;;;;1.37;78.89;99958.34;4986487;28;20045;-70
2023/03/17 01:07:37;;;;;;;0.10;0.10;;;;;;;1.43;78.97;99979.06;5003364;28;20061;-70
2023/03/17 01:10:12;;;;;;;0.00;0.00;;;;;;;1.40;78.80;99974.09;5002337;28;20052;-70
2023/03/17 01:12:38;;;;;;;0.10;0.10;;;;;;;1.47;78.72;99983.00;5004577;28;20045;-70
2023/03/17 01:15:05;;;;;;;0.10;0.10;;;;;;;1.46;78.81;99997.50;5005795;28;20049;-70
2023/03/17 01:17:32;;;;;;;0.10;0.10;;;;;;;1.49;78.62;99998.97;5005588;28;20042;-70
2023/03/17 01:19:58;;;;;;;0.10;0.10;;;;;;;1.48;78.64;100000.81;5004333;28;20050;-69
2023/03/17 01:22:24;;;;;;;0.10;0.10;;;;;;;1.44;78.71;99994.22;5003598;28;20145;-71
2023/03/17 01:24:50;;;;;;;0.10;0.10;;;;;;;1.45;78.74;100001.25;5004430;28;20591;-70
2023/03/17 01:27:18;;;;;;;0.10;0.10;;;;;;;1.46;78.64;100004.75;5003674;28;20050;-70
2023/03/17 01:29:44;;;;;;;0.10;0.10;;;;;;;1.42;78.40;100005.19;4986315;28;20052;-71
2023/03/17 01:32:11;;;;;;;0.10;0.10;;;;;;;1.42;78.60;100010.56;4999939;28;20137;-70
2023/03/17 01:34:38;;;;;;;0.10;0.10;;;;;;;1.45;78.76;100017.41;4982593;28;20050;-70
2023/03/17 01:37:05;;;;;;;0.10;0.10;;;;;;;1.44;78.57;100018.47;4983475;28;20145;-70
2023/03/17 01:39:32;;;;;;;0.10;0.10;;;;;;;1.42;78.51;100021.34;4998072;28;20464;-70
2023/03/17 01:42:00;;;;;;;0.10;0.10;;;;;;;1.40;78.52;100020.72;5006303;28;20046;-71
2023/03/17 01:44:29;;;;;;;0.10;0.10;;;;;;;1.42;78.56;100021.34;5006470;28;20046;-70
2023/03/17 01:46:59;;;;;;;0.10;0.10;;;;;;;1.42;78.57;100031.31;5007762;28;20112;-71
2023/03/17 01:49:29;;;;;;;0.10;0.10;;;;;;;1.37;78.71;100029.25;5003576;28;20496;-70
2023/03/17 01:52:01;;;;;;;0.10;0.10;;;;;;;1.26;78.65;100019.09;5002941;28;20046;-71
2023/03/17 01:54:33;;;;;;;0.10;0.10;;;;;;;1.25;78.80;100025.50;5004440;28;20524;-70
2023/03/17 01:57:03;;;;;;;0.10;0.10;;;;;;;1.14;78.87;100032.34;5004247;28;20049;-70
2023/03/17 01:59:35;;;;;;;0.10;0.10;;;;;;;0.95;79.11;100025.91;4971034;28;20576;-70
2023/03/17 02:02:06;;;;;;;0.10;0.10;;;;;;;0.83;79.58;100033.78;5003584;28;20077;-70
2023/03/17 02:04:34;;;;;;;0.10;0.10;;;;;;;0.77;79.84;100038.09;5002060;28;20045;-70
2023/03/17 02:07:01;;;;;;;;;;;;;;;0.76;79.84;100046.38;4986034;28;20049;-71
2023/03/17 02:09:27;;;;;;;0.10;0.10;;;;;;;0.74;79.96;100048.44;5004899;28;19933;-70
2023/03/17 02:11:55;;;;;;;0.10;0.10;;;;;;;0.70;79.94;100061.47;5003100;28;20088;-70
2023/03/17 02:14:23;;;;;;;0.10;0.10;;;;;;;0.69;79.69;100047.19;5019291;28;20050;-70
2023/03/17 02:16:50;;;;;;;0.10;0.10;;;;;;;0.67;79.48;100046.59;5022878;28;20060;-71
2023/03/17 02:19:16;;;;;;;0.00;0.00;;;;;;;0.67;79.50;100054.66;5004966;28;20495;-70
2023/03/17 02:21:46;;;;;;;0.10;0.10;;;;;;;0.71;79.52;100063.16;5020756;28;20081;-70
2023/03/17 02:24:23;;;;;;;0.10;0.10;;;;;;;0.70;79.36;100061.47;5005314;28;20056;-70
2023/03/17 02:26:52;;;;;;;0.10;0.10;;;;;;;0.86;78.96;100092.59;5004959;28;20045;-69
2023/03/17 02:29:20;;;;;;;0.10;0.10;;;;;;;0.86;78.73;100071.06;5004445;28;20045;-70
2023/03/17 02:31:46;;;;;;;0.10;0.10;;;;;;;0.85;78.45;100074.78;5004452;28;20073;-71
2023/03/17 02:34:12;;;;;;;0.10;0.10;;;;;;;0.93;78.12;100081.84;5007275;28;20517;-70
2023/03/17 02:36:38;;;;;;;0.10;0.10;;;;;;;0.90;77.84;100090.34;4986017;28;20100;-71
2023/03/17 02:39:06;;;;;;;0.10;0.10;;;;;;;0.92;77.87;100088.25;5003041;28;20053;-71
2023/03/17 02:41:33;;;;;;;0.10;0.10;;;;;;;0.96;77.82;100086.81;5004876;28;20050;-70
2023/03/17 02:44:00;;;;;;;0.10;0.10;;;;;;;0.94;77.67;100092.41;5012788;28;20092;-70
2023/03/17 02:46:26;;;;;;;0.10;0.10;;;;;;;0.95;77.23;100109.38;4987446;28;20125;-71
2023/03/17 02:48:53;;;;;;;0.10;0.10;;;;;;;0.95;77.27;100121.00;4983808;28;20145;-71
2023/03/17 02:51:19;;;;;;;0.10;0.10;;;;;;;0.98;77.25;100120.59;4992516;28;20053;-71
2023/03/17 02:53:45;;;;;;;0.20;0.10;;;;;;;1.03;77.37;100124.53;5002541;28;20133;-70
2023/03/17 02:56:13;;;;;;;0.10;0.10;;;;;;;1.03;76.97;100124.53;5002279;28;20050;-71
2023/03/17 02:58:39;;;;;;;0.10;0.10;;;;;;;1.02;76.91;100117.47;5005839;28;20100;-69
2023/03/17 03:01:05;;;;;;;0.10;0.10;;;;;;;1.07;76.37;100145.47;5000788;28;20056;-70
2023/03/17 03:03:31;;;;;;;0.10;0.10;;;;;;;0.93;76.44;100128.44;5004238;28;20062;-70
2023/03/17 03:05:57;;;;;;;0.10;0.10;;;;;;;1.06;76.26;100143.81;5004657;28;20049;-70
2023/03/17 03:08:25;;;;;;;0.10;0.10;;;;;;;1.03;76.17;100140.69;5004501;28;20056;-70
2023/03/17 03:10:51;;;;;;;0.10;0.10;;;;;;;1.02;76.31;100144.41;5000949;28;20050;-70
2023/03/17 03:13:19;;;;;;;0.10;0.10;;;;;;;0.99;75.92;100159.94;5002281;28;20092;-70
2023/03/17 03:15:46;;;;;;;0.10;0.10;;;;;;;1.01;76.06;100162.41;5006132;28;20795;-70
2023/03/17 03:18:12;;;;;;;0.10;0.10;;;;;;;0.98;75.86;100158.28;5005943;28;20042;-70
2023/03/17 03:20:41;;;;;;;0.10;0.10;;;;;;;0.97;75.43;100167.41;5003536;28;20152;-70
2023/03/17 03:23:07;;;;;;;0.10;0.10;;;;;;;0.95;75.11;100168.63;5004289;28;20133;-70
2023/03/17 03:25:36;;;;;;;0.10;0.10;;;;;;;0.94;74.98;100178.59;5004724;28;20046;-70
2023/03/17 03:28:02;;;;;;;0.10;0.10;;;;;;;0.91;75.04;100178.16;5005451;28;20076;-70
2023/03/17 03:30:30;;;;;;;0.10;0.10;;;;;;;0.89;74.58;100191.00;5005938;28;20046;-70
2023/03/17 03:32:57;;;;;;;0.20;0.20;;;;;;;0.89;74.52;100189.13;5006089;28;20591;-70
2023/03/17 03:35:23;;;;;;;0.10;0.10;;;;;;;0.87;74.27;100182.28;5010921;28;20050;-70
2023/03/17 03:37:49;;;;;;;0.10;0.10;;;;;;;0.86;74.25;100176.06;5009195;28;20052;-70
2023/03/17 03:40:16;;;;;;;0.10;0.10;;;;;;;0.85;73.65;100183.28;5007266;28;20494;-70
2023/03/17 03:42:42;;;;;;;0.10;0.10;;;;;;;0.75;73.47;100174.78;5025344;28;20042;-71
2023/03/17 03:45:09;;;;;;;0.10;0.10;;;;;;;0.81;73.43;100195.50;5005249;28;20050;-70
2023/03/17 03:47:37;;;;;;;0.10;0.10;;;;;;;0.80;73.58;100207.31;5004668;28;20054;-70
2023/03/17 03:50:04;;;;;;;0.10;0.10;;;;;;;0.71;73.35;100184.28;5007878;28;20157;-71
2023/03/17 03:52:30;;;;;;;0.10;0.10;;;;;;;0.83;73.21;100203.38;5008319;28;20425;-71
2023/03/17 03:54:56;;;;;;;0.10;0.10;;;;;;;0.84;73.17;100199.66;5007318;28;20034;-70
2023/03/17 03:57:22;;;;;;;0.10;0.10;;;;;;;0.81;72.62;100200.06;5008487;28;20282;-71
2023/03/17 03:59:48;;;;;;;0.10;0.10;;;;;;;0.74;72.71;100191.13;5006775;28;20052;-70
2023/03/17 04:02:15;;;;;;;0.10;0.10;;;;;;;0.82;72.00;100205.25;5005953;28;20053;-71
2023/03/17 04:04:43;;;;;;;0.10;0.10;;;;;;;0.84;71.75;100218.50;4985762;28;20549;-70
2023/03/17 04:07:10;;;;;;;0.10;0.10;;;;;;;0.87;71.86;100209.22;4986893;28;20137;-70
2023/03/17 04:09:36;;;;;;;0.10;0.10;;;;;;;0.88;71.42;100227.84;4986124;28;20417;-70
2023/03/17 04:12:02;;;;;;;0.10;0.10;;;;;;;0.80;71.00;100210.00;4995922;28;20092;-71
2023/03/17 04:14:28;;;;;;;0.10;0.10;;;;;;;0.86;70.17;100237.97;5006021;28;20056;-70
2023/03/17 04:16:54;;;;;;;0.10;0.10;;;;;;;0.84;69.83;100231.97;5005917;28;20073;-70
2023/03/17 04:19:20;;;;;;;0.10;0.10;;;;;;;0.85;69.28;100253.28;5005662;28;20080;-70
2023/03/17 04:21:48;;;;;;;0.10;0.10;;;;;;;0.89;69.57;100250.22;4988601;28;20050;-71
2023/03/17 04:24:14;;;;;;;;;;;;;;;0.94;69.00;100253.16;5007617;28;20050;-71
2023/03/17 04:26:41;;;;;;;0.10;0.10;;;;;;;0.98;68.95;100249.00;5006354;28;20015;-70
2023/03/17 04:29:07;;;;;;;0.10;0.10;;;;;;;0.98;68.45;100249.84;5002442;28;20089;-70
2023/03/17 04:31:33;;;;;;;0.10;0.10;;;;;;;0.99;68.30;100253.38;4988231;28;20573;-71
2023/03/17 04:34:00;;;;;;;0.10;0.10;;;;;;;1.01;67.91;100258.56;4985146;28;20053;-70
2023/03/17 04:36:27;;;;;;;0.10;0.10;;;;;;;1.05;67.79;100266.03;4984828;28;20054;-70
2023/03/17 04:38:55;;;;;;;0.10;0.10;;;;;;;1.06;67.83;100278.47;5003653;28;20054;-70
2023/03/17 04:41:21;;;;;;;0.10;0.10;;;;;;;0.98;67.27;100266.00;5007771;28;20532;-70
2023/03/17 04:43:47;;;;;;;0.10;0.10;;;;;;;0.98;66.81;100295.63;4999679;28;20084;-71
2023/03/17 04:46:13;;;;;;;0.10;0.10;;;;;;;0.97;66.97;100299.38;4987307;28;20065;-71
2023/03/17 04:48:40;;;;;;;0.10;0.10;;;;;;;1.03;67.09;100303.13;4657931;28;9999935;-70
2023/03/17 04:51:06;;;;;;;0.10;0.10;;;;;;;1.06;67.43;100300.03;5003381;28;20054;-72
2023/03/17 04:53:32;;;;;;;0.10;0.10;;;;;;;1.07;67.46;100317.00;5002622;28;20616;-71
2023/03/17 04:56:00;;;;;;;0.10;0.10;;;;;;;1.09;67.29;100310.41;5006181;28;20061;-70
2023/03/17 04:58:26;;;;;;;0.10;0.10;;;;;;;1.17;66.65;100317.47;4987830;28;20144;-70
2023/03/17 05:00:53;;;;;;;0.10;0.10;;;;;;;1.18;66.60;100308.38;5004789;28;20136;-70
2023/03/17 05:03:19;;;;;;;0.10;0.10;;;;;;;1.26;66.63;100319.00;4990960;28;20046;-69
2023/03/17 05:05:46;;;;;;;0.10;0.10;;;;;;;1.32;65.99;100316.50;5005896;28;20149;-70
2023/03/17 05:08:12;;;;;;;0.10;0.10;;;;;;;1.31;65.39;100318.34;5005836;28;20045;-70
2023/03/17 05:10:38;;;;;;;0.20;0.20;;;;;;;1.22;65.24;100319.59;5006888;28;20050;-70
2023/03/17 05:13:05;;;;;;;0.10;0.10;;;;;;;1.33;65.18;100337.88;5005830;28;20532;-70
2023/03/17 05:15:31;;;;;;;0.10;0.10;;;;;;;1.36;65.29;100344.72;5006402;28;20412;-70
2023/03/17 05:17:57;;;;;;;0.10;0.10;;;;;;;1.45;64.56;100346.22;5006171;28;20082;-70
2023/03/17 05:20:24;;;;;;;0.10;0.10;;;;;;;1.47;64.11;100349.53;5004244;28;20497;-70
2023/03/17 05:22:50;;;;;;;0.10;0.10;;;;;;;1.50;63.57;100353.69;5005448;28;20105;-71
2023/03/17 05:25:16;;;;;;;0.10;0.10;;;;;;;1.48;62.92;100358.44;4980628;28;20070;-71
2023/03/17 05:27:42;;;;;;;0.10;0.10;;;;;;;1.50;62.80;100362.59;4984887;28;20080;-70
2023/03/17 05:30:11;;;;;;;0.10;0.10;;;;;;;1.59;62.71;100374.03;4986639;28;20502;-70
2023/03/17 05:32:37;;;;;;;0.10;0.10;;;;;;;1.61;62.76;100369.28;4989830;28;20053;-70
2023/03/17 05:35:04;;;;;;;0.20;0.20;;;;;;;1.61;62.01;100365.75;5001503;28;20056;-70
2023/03/17 05:37:31;;;;;;;0.10;0.10;;;;;;;1.57;61.70;100373.41;4996344;28;20165;-71
2023/03/17 05:39:57;;;;;;;0.10;0.10;;;;;;;1.62;61.67;100384.41;4969544;28;20046;-71
2023/03/17 05:42:23;;;;;;;0.10;0.10;;;;;;;1.59;61.87;100390.22;4989058;28;20056;-70
2023/03/17 05:44:49;;;;;;;0.10;0.10;;;;;;;1.58;61.67;100393.13;4990626;28;20046;-71
2023/03/17 05:47:16;;;;;;;0.10;0.10;;;;;;;1.60;61.11;100385.66;4983872;28;20057;-71
2023/03/17 05:49:42;;;;;;;0.10;0.10;;;;;;;1.62;60.35;100392.50;4992435;28;20042;-71
2023/03/17 05:52:09;;;;;;;0.10;0.10;;;;;;;1.58;59.92;100395.81;4997049;28;20092;-71
2023/03/17 05:54:35;;;;;;;0.10;0.10;;;;;;;1.62;59.79;100389.81;5001581;28;20093;-71
2023/03/17 05:57:02;;;;;;;0.10;0.10;;;;;;;1.62;59.81;100399.78;4969158;28;20050;-71
2023/03/17 05:59:28;;;;;;;0.15;0.15;;;;;;;1.61;59.63;100398.94;4996893;28;20053;-71
2023/03/17 06:01:56;;;;;;;0.10;0.10;;;;;;;1.58;59.53;100388.56;5004722;28;20077;-72
2023/03/17 06:04:25;;;;;;;0.10;0.10;;;;;;;1.63;59.18;100404.13;5005293;28;20168;-71
2023/03/17 06:06:51;;;;;;;0.10;0.10;;;;;;;1.66;59.15;100409.13;5005907;28;20045;-71
2023/03/17 06:09:18;;;;;;;0.10;0.10;;;;;;;1.70;59.04;100402.28;5002569;28;20432;-71
2023/03/17 06:11:44;;;;;;;0.10;0.10;;;;;;;1.75;58.70;100407.06;5007135;28;20050;-70
2023/03/17 06:14:10;;;;;;;0.10;0.10;;;;;;;1.79;58.68;100414.56;5002187;28;20595;-70
2023/03/17 06:16:37;;;;;;;0.10;0.10;;;;;;;1.90;58.36;100420.44;5015190;28;20045;-70
2023/03/17 06:19:03;;;;;;;0.10;0.10;;;;;;;1.96;57.76;100408.81;4996648;28;20089;-70
2023/03/17 06:21:30;;;;;;;0.10;0.10;;;;;;;1.96;57.91;100416.91;4996254;28;20521;-71
2023/03/17 06:23:56;;;;;;;0.10;0.10;;;;;;;1.98;57.58;100421.06;4995424;28;20104;-71
2023/03/17 06:26:22;;;;;;;0.20;0.20;;;;;;;1.96;57.65;100420.44;4996086;28;20050;-71
2023/03/17 06:28:48;;;;;;;0.10;0.10;;;;;;;2.00;57.57;100411.94;4996024;28;20045;-70
2023/03/17 06:31:14;;;;;;;0.20;0.20;;;;;;;2.04;57.30;100427.53;5001175;28;20552;-71
2023/03/17 06:33:41;;;;;;;0.20;0.20;;;;;;;2.12;57.24;100426.50;5009079;28;20045;-70
2023/03/17 06:36:07;;;;;;;0.20;0.20;;;;;;;2.20;57.09;100420.09;5008699;28;20100;-70
2023/03/17 06:38:35;;;;;;;0.20;0.20;;;;;;;2.22;56.68;100426.13;5008231;28;20156;-70
2023/03/17 06:41:02;;;;;;;0.13;0.13;;;;;;;2.24;56.52;100432.13;5009857;28;20045;-70
2023/03/17 06:43:28;;;;;;;0.17;0.17;;;;;;;2.13;56.73;100429.00;5009943;28;20050;-71
2023/03/17 06:45:54;;;;;;;0.20;0.20;;;;;;;2.05;57.07;100413.00;5008070;28;20054;-70
2023/03/17 06:48:22;;;;;;;0.10;0.10;;;;;;;2.03;56.40;100428.56;5007777;28;20053;-70
2023/03/17 06:50:49;;;;;;;;;;;;;;;1.98;56.62;100439.13;5010103;28;20050;-70
2023/03/17 06:53:15;;;;;;;0.10;0.10;;;;;;;2.03;56.62;100446.59;5009538;28;20027;-70
2023/03/17 06:55:43;;;;;;;0.10;0.10;;;;;;;2.12;56.43;100448.09;5008788;28;20421;-70
2023/03/17 06:58:12;;;;;;;0.20;0.20;;;;;;;2.18;55.82;100454.53;5008644;28;20563;-70
2023/03/17 07:00:38;;;;;;;0.20;0.20;;;;;;;2.33;55.59;100455.19;5008803;28;20042;-70
2023/03/17 07:03:05;;;;;;;0.20;0.20;;;;;;;2.46;55.12;100467.91;5007817;28;20046;-70
2023/03/17 07:05:32;;;;;;;0.30;0.30;;;;;;;2.61;55.28;100473.09;5009187;28;20305;-70
2023/03/17 07:07:58;;;;;;;0.20;0.20;;;;;;;2.69;54.77;100464.81;5009758;28;20077;-71
2023/03/17 07:10:25;;;;;;;0.20;0.20;;;;;;;2.88;54.68;100467.72;5013593;28;20088;-70
2023/03/17 07:12:52;;;;;;;0.20;0.20;;;;;;;3.04;54.66;100473.75;5013374;28;20092;-70
2023/03/17 07:15:19;;;;;;;0.20;0.20;;;;;;;3.19;54.20;100470.81;5013715;28;20429;-70
2023/03/17 07:17:46;;;;;;;0.20;0.20;;;;;;;3.26;53.65;100479.78;5013041;28;20516;-70
2023/03/17 07:20:12;;;;;;;0.20;0.20;;;;;;;3.39;53.60;100481.63;5012952;28;20050;-70
2023/03/17 07:22:39;;;;;;;0.20;0.20;;;;;;;3.44;52.84;100475.59;5011185;28;20054;-70
2023/03/17 07:25:06;;;;;;;0.20;0.20;;;;;;;3.38;52.69;100483.50;5013365;28;20046;-70
2023/03/17 07:27:33;;;;;;;0.20;0.20;;;;;;;3.38;52.76;100483.50;5013233;28;20532;-71
2023/03/17 07:30:03;;;;;;;0.20;0.20;;;;;;;3.38;52.42;100486.22;5011944;28;20052;-70
2023/03/17 07:32:29;;;;;;;0.20;0.20;;;;;;;3.40;52.03;100491.41;5011069;28;20054;-71
2023/03/17 07:34:56;;;;;;;0.20;0.20;;;;;;;3.40;51.98;100494.09;5011142;28;20050;-70
2023/03/17 07:37:22;;;;;;;0.20;0.20;;;;;;;3.47;51.81;100483.28;5011998;28;20042;-70
2023/03/17 07:39:48;;;;;;;0.20;0.20;;;;;;;3.59;51.78;100492.41;5013168;28;20054;-70
2023/03/17 07:42:16;;;;;;;0.30;0.30;;;;;;;3.72;51.20;100494.25;5011219;28;20077;-71
2023/03/17 07:44:42;;;;;;;;;;;;;;;3.88;50.92;100487.53;5011818;28;20038;-71
2023/03/17 07:47:10;;;;;;;0.30;0.30;;;;;;;4.02;50.50;100485.59;5012279;28;20388;-70
2023/03/17 07:49:36;;;;;;;0.20;0.20;;;;;;;4.17;49.90;100489.91;5011762;28;20049;-70
2023/03/17 07:52:03;;;;;;;0.30;0.30;;;;;;;4.28;49.77;100493.81;5012517;28;20557;-70
2023/03/17 07:54:29;;;;;;;0.20;0.20;;;;;;;4.52;49.18;100493.06;5012276;28;20573;-70
2023/03/17 07:56:55;;;;;;;0.30;0.30;;;;;;;4.62;48.84;100498.00;4994994;28;20471;-70
2023/03/17 07:59:22;;;;;;;0.20;0.20;;;;;;;4.68;48.85;100496.31;5010633;28;20506;-71
2023/03/17 08:01:48;;;;;;;0.30;0.30;;;;;;;4.70;48.36;100499.63;5011619;28;20045;-70
2023/03/17 08:04:16;;;;;;;0.30;0.30;;;;;;;4.68;47.76;100501.72;5012286;28;20081;-71
2023/03/17 08:06:42;;;;;;;0.20;0.20;;;;;;;4.64;47.68;100504.03;5012864;28;20107;-71
2023/03/17 08:09:09;;;;;;;0.30;0.30;;;;;;;4.47;47.79;100519.13;5012473;28;20056;-70
2023/03/17 08:11:36;;;;;;;;;;;;;;;4.52;47.63;100524.72;5013401;28;20084;-70
2023/03/17 08:14:02;;;;;;;0.30;0.30;;;;;;;4.72;47.18;100529.22;5013030;28;19995;-70
2023/03/17 08:16:28;;;;;;;0.30;0.30;;;;;;;5.15;46.20;100539.34;5013061;28;20044;-71
2023/03/17 08:18:56;;;;;;;0.20;0.20;;;;;;;5.65;45.30;100543.09;5011181;28;20049;-71
2023/03/17 08:21:23;;;;;;;0.20;0.20;;;;;;;6.14;44.56;100540.47;4994657;28;20046;-71
2023/03/17 08:23:49;;;;;;;0.30;0.30;;;;;;;6.57;43.22;100541.44;5012134;28;20066;-70
2023/03/17 08:26:17;;;;;;;0.30;0.30;;;;;;;7.13;42.14;100549.38;5011481;28;20049;-71
2023/03/17 08:28:43;;;;;;;0.30;0.30;;;;;;;7.44;40.92;100554.78;5010830;28;20430;-70
2023/03/17 08:31:12;;;;;;;0.35;0.35;;;;;;;7.71;40.08;100557.84;5011710;28;20089;-71
2023/03/17 08:33:38;;;;;;;0.30;0.30;;;;;;;8.19;38.49;100558.59;5011156;28;20054;-71
2023/03/17 08:36:08;;;;;;;0.30;0.30;;;;;;;8.19;38.38;100563.22;5010857;28;20045;-71
2023/03/17 08:38:36;;;;;;;0.30;0.30;;;;;;;8.35;38.01;100561.63;5010312;28;20293;-71
2023/03/17 08:41:03;;;;;;;0.30;0.30;;;;;;;8.47;37.30;100569.81;5012112;28;20444;-71
2023/03/17 08:43:29;;;;;;;0.30;0.30;;;;;;;8.18;37.20;100573.28;5010917;28;20100;-71
2023/03/17 08:46:12;;;;;;;0.30;0.30;;;;;;;7.91;37.24;100571.09;4993664;28;20049;-71
2023/03/17 08:48:38;;;;;;;0.30;0.30;;;;;;;7.58;37.68;100568.97;5011395;28;20061;-71
2023/03/17 08:51:05;;;;;;;0.55;0.30;;;;;;;7.44;38.30;100579.25;5010232;28;20050;-71
2023/03/17 08:53:33;;;;;;;0.30;0.30;;;;;;;7.34;37.99;100583.38;5010296;28;20054;-71
2023/03/17 08:56:03;;;;;;;0.30;0.30;;;;;;;7.43;37.45;100574.88;5010661;28;20157;-71
2023/03/17 08:58:29;;;;;;;0.30;0.30;;;;;;;7.18;37.63;100578.59;5011562;28;20075;-71
2023/03/17 09:00:59;;;;;;;0.40;0.40;;;;;;;7.14;37.37;100578.25;5010883;28;20052;-71
2023/03/17 09:03:25;;;;;;;0.30;0.30;;;;;;;7.72;36.14;100586.72;5010532;28;20104;-71
2023/03/17 09:05:53;;;;;;;0.30;0.30;;;;;;;7.75;35.73;100593.59;5010398;28;20054;-72
2023/03/17 09:08:20;;;;;;;0.30;0.30;;;;;;;7.51;36.26;100601.72;5011373;28;20106;-71
2023/03/17 09:10:46;;;;;;;0.30;0.30;;;;;;;7.07;36.72;100588.41;5011292;28;20157;-71
2023/03/17 09:13:15;;;;;;;0.30;0.30;;;;;;;6.87;37.29;100586.81;5009774;28;20096;-71
2023/03/17 09:15:41;;;;;;;0.30;0.30;;;;;;;6.55;37.59;100597.06;5011337;28;20057;-71
2023/03/17 09:18:08;;;;;;;0.20;0.20;;;;;;;6.43;37.94;100608.69;5026873;28;20053;-71
2023/03/17 09:20:34;;;;;;;0.30;0.30;;;;;;;6.55;38.04;100611.44;5010011;28;20073;-71
2023/03/17 09:23:03;;;;;;;0.40;0.40;;;;;;;7.65;36.50;100616.78;5010045;28;20049;-71
2023/03/17 09:25:29;;;;;;;0.40;0.40;;;;;;;8.97;34.81;100606.47;5010618;28;20050;-72
2023/03/17 09:27:56;;;;;;;0.40;0.40;;;;;;;10.12;32.57;100604.53;5010934;28;20042;-71
2023/03/17 09:30:25;;;;;;;0.50;0.50;;;;;;;11.02;30.55;100614.38;5005688;28;20053;-72
2023/03/17 09:32:52;;;;;;;0.45;0.45;;;;;;;11.55;30.34;100616.50;5010614;28;20054;-71
2023/03/17 09:35:19;;;;;;;0.60;0.60;;;;;;;12.33;29.67;100615.13;5009363;28;20045;-72
2023/03/17 09:37:46;;;;;;;0.53;0.53;;;;;;;12.79;29.06;100613.63;5010788;28;20046;-71
2023/03/17 09:40:17;;;;;;;0.60;0.60;;;;;;;12.95;28.59;100610.94;5024243;28;20332;-71
2023/03/17 09:42:53;;;;;;;0.60;0.60;;;;;;;13.17;27.87;100613.44;5010297;28;20137;-72
2023/03/17 09:45:32;;;;;;;0.70;0.70;;;;;;;13.65;27.35;100617.88;5009127;28;20100;-71
2023/03/17 09:48:11;;;;;;;0.30;0.30;;;;;;;13.53;26.67;100607.19;5010121;28;20046;-71
2023/03/17 09:50:45;;;;;;;0.43;0.43;;;;;;;12.42;27.00;100612.69;5009503;28;20049;-71
2023/03/17 09:53:17;;;;;;;0.40;0.40;;;;;;;12.01;26.87;100617.91;5010611;28;20061;-71
2023/03/17 09:55:45;;;;;;;0.50;0.50;;;;;;;11.83;27.38;100625.47;5009910;28;20129;-70
2023/03/17 09:58:11;;;;;;;0.57;0.57;;;;;;;11.83;26.94;100622.75;4991873;28;20057;-71
2023/03/17 10:00:39;;;;;;;0.70;0.70;;;;;;;11.87;26.87;100632.06;5010856;28;20133;-71
2023/03/17 10:03:09;;;;;;;0.50;0.50;;;;;;;12.51;26.41;100623.97;5008861;28;20054;-71
2023/03/17 10:05:35;;;;;;;0.60;0.60;;;;;;;12.61;26.31;100639.66;5010390;28;20085;-71
2023/03/17 10:08:09;;;;;;;0.80;0.80;;;;;;;12.93;24.95;100635.09;5008154;28;20532;-71
2023/03/17 10:10:41;;;;;;;0.90;0.90;;;;;;;13.46;23.83;100633.03;5010269;28;20205;-71
2023/03/17 10:13:18;;;;;;;0.60;0.60;;;;;;;13.71;22.95;100647.03;5009851;28;20046;-71
2023/03/17 10:15:50;;;;;;;0.50;0.50;;;;;;;12.83;23.70;100639.47;5008120;28;20045;-71
2023/03/17 10:18:17;;;;;;;0.40;0.40;;;;;;;12.07;24.59;100648.97;5007829;28;20100;-71
2023/03/17 10:20:51;;;;;;;0.65;0.65;;;;;;;11.53;24.37;100648.81;5009896;28;20062;-71
2023/03/17 10:23:21;;;;;;;0.90;0.90;;;;;;;12.18;23.49;100647.94;5009882;28;20038;-71
2023/03/17 10:25:47;;;;;;;0.90;0.90;;;;;;;13.33;21.87;100644.50;5009489;28;20053;-71
2023/03/17 10:28:27;;;;;;;0.90;0.90;;;;;;;13.97;21.23;100639.59;4991904;28;20136;-71
2023/03/17 10:31:00;;;;;;;1.00;1.00;;;;;;;14.91;20.46;100642.06;5010385;28;20100;-72
2023/03/17 10:33:26;;;;;;;1.00;1.00;;;;;;;15.09;21.04;100649.66;5009002;28;20046;-71
2023/03/17 10:35:52;;;;;;;1.00;1.00;;;;;;;14.95;20.66;100619.19;5010137;28;20049;-71
2023/03/17 10:38:20;;;;;;;1.00;1.00;;;;;;;15.33;20.69;100643.47;5009661;28;20084;-72
2023/03/17 10:40:55;;;;;;;1.00;1.00;;;;;;;15.09;19.54;100648.84;5008562;28;20041;-71
2023/03/17 10:43:22;;;;;;;1.10;1.10;;;;;;;14.97;19.45;100661.03;5007709;28;20069;-71
2023/03/17 10:45:58;;;;;;;1.10;1.10;;;;;;;14.98;18.68;100653.56;5010019;28;20095;-72
2023/03/17 10:48:25;;;;;;;1.10;1.10;;;;;;;14.97;17.28;100649.16;5008418;28;20433;-71
2023/03/17 10:50:51;;;;;;;1.10;1.10;;;;;;;14.82;16.76;100650.09;5007217;28;20044;-71
2023/03/17 10:53:26;;;;;;;1.10;1.10;;;;;;;15.32;15.76;100664.66;5009210;28;20351;-71
2023/03/17 10:55:55;;;;;;;1.20;1.20;;;;;;;15.49;15.70;100663.44;5009518;28;20052;-71
2023/03/17 10:58:34;;;;;;;1.20;1.20;;;;;;;15.84;16.30;100663.44;5009526;28;20061;-71
2023/03/17 11:01:06;;;;;;;1.10;1.10;;;;;;;16.22;15.84;100671.13;5009297;28;20056;-71
2023/03/17 11:03:37;;;;;;;1.10;1.10;;;;;;;16.89;15.83;100661.25;5009552;28;20071;-71
2023/03/17 11:06:05;;;;;;;1.10;1.10;;;;;;;17.29;15.40;100670.91;5009344;28;20140;-72
2023/03/17 11:08:34;;;;;;;1.30;1.20;;;;;;;17.43;15.38;100670.97;5008843;28;20062;-72
2023/03/17 11:11:04;;;;;;;1.20;1.20;;;;;;;17.05;15.41;100675.69;5009454;28;20046;-71
2023/03/17 11:13:31;;;;;;;1.30;1.20;;;;;;;17.21;16.11;100681.81;5007368;28;20096;-72
2023/03/17 11:16:14;;;;;;;1.30;1.20;;;;;;;17.41;15.64;100681.50;5007616;28;20046;-71
2023/03/17 11:18:41;;;;;;;1.30;1.20;;;;;;;17.42;15.98;100674.06;5008563;28;20046;-72
2023/03/17 11:21:09;;;;;;;1.30;1.20;;;;;;;17.63;16.30;100685.59;5007507;28;20065;-72
2023/03/17 11:23:51;;;;;;;1.30;1.20;;;;;;;17.62;16.65;100681.19;5007128;28;20137;-71
2023/03/17 11:26:55;;;;;;;1.30;1.20;;;;;;;17.61;16.30;100689.81;5008086;28;20054;-72
2023/03/17 11:29:31;;;;;;;1.30;1.20;;;;;;;17.25;16.62;100682.88;5009240;28;20053;-71
2023/03/17 11:32:09;;;;;;;1.30;1.20;;;;;;;16.99;16.59;100677.69;5008123;28;20042;-72
2023/03/17 11:34:51;;;;;;;1.30;1.20;;;;;;;17.01;16.78;100683.72;4974813;28;20054;-72
2023/03/17 11:37:28;;;;;;;1.30;1.20;;;;;;;17.10;16.27;100687.47;5007488;28;20132;-72